createdAt,value
2023-03-24T00:01:30.675Z,2.35
2023-03-24T00:03:57.733Z,2.70
2023-03-24T00:06:26.856Z,2.40
2023-03-24T00:08:54.072Z,2.00
2023-03-24T00:11:21.543Z,2.22
2023-03-24T00:13:50.905Z,1.88
2023-03-24T00:16:19.591Z,2.22
2023-03-24T00:18:50.387Z,2.53
2023-03-24T00:21:18.529Z,2.30
2023-03-24T00:23:47.852Z,2.30
2023-03-24T00:26:15.683Z,2.20
2023-03-24T00:28:43.910Z,1.73
2023-03-24T00:31:11.155Z,2.25
2023-03-24T00:33:38.088Z,2.15
2023-03-24T00:36:06.383Z,2.10
2023-03-24T00:38:37.147Z,2.08
2023-03-24T00:41:05.193Z,2.10
2023-03-24T00:43:32.792Z,1.63
2023-03-24T00:46:05.067Z,2.58
2023-03-24T00:48:32.524Z,2.00
2023-03-24T00:51:02.408Z,2.00
2023-03-24T00:53:30.026Z,2.10
2023-03-24T00:55:57.269Z,1.83
2023-03-24T00:58:24.841Z,2.10
2023-03-24T01:00:53.432Z,1.65
2023-03-24T01:03:22.414Z,2.08
2023-03-24T01:05:49.275Z,1.90
2023-03-24T01:08:20.511Z,2.17
2023-03-24T01:10:53.423Z,2.00
2023-03-24T01:13:25.360Z,1.60
2023-03-24T01:15:52.568Z,1.58
2023-03-24T01:18:19.880Z,1.70
2023-03-24T01:20:49.393Z,1.60
2023-03-24T01:23:23.520Z,1.50
2023-03-24T01:25:50.859Z,1.67
2023-03-24T01:28:19.353Z,1.70
2023-03-24T01:30:46.405Z,1.70
2023-03-24T01:33:13.536Z,1.52
2023-03-24T01:35:40.621Z,1.50
2023-03-24T01:38:08.681Z,1.63
2023-03-24T01:40:37.071Z,1.65
2023-03-24T01:43:04.871Z,1.55
2023-03-24T01:45:56.194Z,1.60
2023-03-24T01:48:35.695Z,1.55
2023-03-24T01:51:06.449Z,2.13
2023-03-24T01:53:34.618Z,1.52
2023-03-24T01:56:02.488Z,1.25
2023-03-24T01:58:31.198Z,1.95
2023-03-24T02:00:58.260Z,1.42
2023-03-24T02:03:25.892Z,1.30
2023-03-24T02:05:53.977Z,1.67
2023-03-24T02:08:23.900Z,1.55
2023-03-24T02:10:52.693Z,1.58
2023-03-24T02:13:19.342Z,1.20
2023-03-24T02:15:53.391Z,1.42
2023-03-24T02:18:26.141Z,1.63
2023-03-24T02:20:52.882Z,1.85
2023-03-24T02:23:28.294Z,1.35
2023-03-24T02:26:14.005Z,1.80
2023-03-24T02:28:51.755Z,1.98
2023-03-24T02:31:51.292Z,1.42
2023-03-24T02:34:21.498Z,1.67
2023-03-24T02:36:49.187Z,1.48
2023-03-24T02:39:25.567Z,1.38
2023-03-24T02:42:10.956Z,1.10
2023-03-24T02:44:40.952Z,1.42
2023-03-24T02:47:33.434Z,1.10
2023-03-24T02:52:38.657Z,1.20
2023-03-24T02:55:09.393Z,1.35
2023-03-24T02:57:50.374Z,1.17
2023-03-24T03:00:26.524Z,1.25
2023-03-24T03:02:57.802Z,1.23
2023-03-24T03:05:34.556Z,1.57
2023-03-24T03:08:03.437Z,1.05
2023-03-24T03:10:32.960Z,1.20
2023-03-24T03:13:02.357Z,1.27
2023-03-24T03:15:34.018Z,1.38
2023-03-24T03:18:14.577Z,1.20
2023-03-24T03:20:50.994Z,0.98
2023-03-24T03:23:24.241Z,1.40
2023-03-24T03:25:54.263Z,1.15
2023-03-24T03:28:30.111Z,1.00
2023-03-24T03:31:01.786Z,1.10
2023-03-24T03:33:41.328Z,0.80
2023-03-24T03:36:11.553Z,1.52
2023-03-24T03:38:44.898Z,1.02
2023-03-24T03:41:15.501Z,1.08
2023-03-24T03:43:42.424Z,1.15
2023-03-24T03:46:09.203Z,0.90
2023-03-24T03:48:36.692Z,0.70
2023-03-24T03:51:13.185Z,0.98
2023-03-24T03:53:44.367Z,0.65
2023-03-24T03:56:11.307Z,0.95
2023-03-24T03:58:37.964Z,1.00
2023-03-24T04:01:06.555Z,1.05
2023-03-24T04:03:52.367Z,0.88
2023-03-24T04:06:27.111Z,0.73
2023-03-24T04:08:57.378Z,0.82
2023-03-24T04:11:30.029Z,0.70
2023-03-24T04:14:08.633Z,1.00
2023-03-24T04:16:46.138Z,0.80
2023-03-24T04:19:25.663Z,0.80
2023-03-24T04:22:03.437Z,0.75
2023-03-24T04:24:38.136Z,0.88
2023-03-24T04:27:07.340Z,0.68
2023-03-24T04:29:42.594Z,0.60
2023-03-24T04:32:09.321Z,1.13
2023-03-24T04:34:39.562Z,0.75
2023-03-24T04:37:12.964Z,0.98
2023-03-24T04:39:42.581Z,0.70
2023-03-24T04:42:16.019Z,0.50
2023-03-24T04:44:43.082Z,0.63
2023-03-24T04:47:10.694Z,0.60
2023-03-24T04:49:38.104Z,0.77
2023-03-24T04:52:05.367Z,0.68
2023-03-24T04:54:32.269Z,0.50
2023-03-24T04:57:02.024Z,0.80
2023-03-24T04:59:29.555Z,0.68
2023-03-24T05:01:56.854Z,0.73
2023-03-24T05:04:25.762Z,0.88
2023-03-24T05:06:52.606Z,0.60
2023-03-24T05:09:21.587Z,0.60
2023-03-24T05:11:48.751Z,0.57
2023-03-24T05:14:16.110Z,0.68
2023-03-24T05:16:42.924Z,0.63
2023-03-24T05:19:09.976Z,0.68
2023-03-24T05:21:36.991Z,0.50
2023-03-24T05:24:04.035Z,0.50
2023-03-24T05:26:33.148Z,0.77
2023-03-24T05:29:00.597Z,0.70
2023-03-24T05:31:27.324Z,0.95
2023-03-24T05:33:54.142Z,0.70
2023-03-24T05:36:21.138Z,0.60
2023-03-24T05:38:47.892Z,0.68
2023-03-24T05:41:14.478Z,0.60
2023-03-24T05:43:41.171Z,0.60
2023-03-24T05:46:09.934Z,0.80
2023-03-24T05:48:36.743Z,0.80
2023-03-24T05:51:03.407Z,0.57
2023-03-24T05:53:32.856Z,0.70
2023-03-24T05:55:59.511Z,0.57
2023-03-24T05:58:26.261Z,0.77
2023-03-24T06:00:54.801Z,0.95
2023-03-24T06:03:21.697Z,0.70
2023-03-24T06:05:50.774Z,0.90
2023-03-24T06:08:18.734Z,0.88
2023-03-24T06:10:45.367Z,0.70
2023-03-24T06:13:12.007Z,0.60
2023-03-24T06:15:39.808Z,0.60
2023-03-24T06:18:08.188Z,0.85
2023-03-24T06:20:36.904Z,1.40
2023-03-24T06:23:03.645Z,0.82
2023-03-24T06:25:30.598Z,1.30
2023-03-24T06:28:04.301Z,0.80
2023-03-24T06:30:31.214Z,0.75
2023-03-24T06:32:58.474Z,0.40
2023-03-24T06:35:26.067Z,0.52
2023-03-24T06:37:53.042Z,1.15
2023-03-24T06:40:20.401Z,0.88
2023-03-24T06:42:47.534Z,0.70
2023-03-24T06:45:17.021Z,0.60
2023-03-24T06:47:43.962Z,0.93
2023-03-24T06:50:13.582Z,0.90
2023-03-24T06:52:41.468Z,0.73
2023-03-24T06:55:08.622Z,0.57
2023-03-24T06:57:35.409Z,0.60
2023-03-24T07:00:03.949Z,0.75
2023-03-24T07:02:35.975Z,0.60
2023-03-24T07:10:06.553Z,0.50
2023-03-24T07:12:34.206Z,1.58
2023-03-24T07:15:01.363Z,0.60
2023-03-24T07:17:28.234Z,0.80
2023-03-24T07:19:55.272Z,1.17
2023-03-24T07:22:24.851Z,0.93
2023-03-24T07:24:54.615Z,0.80
2023-03-24T07:27:21.555Z,0.95
2023-03-24T07:29:50.730Z,0.77
2023-03-24T07:32:19.045Z,0.90
2023-03-24T07:34:47.076Z,0.75
2023-03-24T07:37:14.790Z,0.60
2023-03-24T07:39:44.153Z,0.85
2023-03-24T07:42:12.536Z,0.93
2023-03-24T07:44:40.003Z,1.10
2023-03-24T07:47:07.099Z,0.60
2023-03-24T07:49:34.042Z,0.98
2023-03-24T07:52:02.067Z,0.70
2023-03-24T07:54:33.303Z,0.77
2023-03-24T07:57:00.710Z,0.63
2023-03-24T07:59:28.035Z,0.85
2023-03-24T08:01:58.433Z,1.10
2023-03-24T08:04:28.806Z,0.63
2023-03-24T08:06:55.609Z,0.90
2023-03-24T08:09:24.586Z,1.10
2023-03-24T08:11:51.628Z,0.75
2023-03-24T08:14:18.506Z,1.05
2023-03-24T08:16:46.585Z,1.00
2023-03-24T08:19:13.863Z,0.70
2023-03-24T08:21:41.326Z,0.57
2023-03-24T08:24:08.212Z,1.20
2023-03-24T08:26:35.627Z,0.70
2023-03-24T08:29:03.268Z,0.85
2023-03-24T08:31:37.331Z,0.93
2023-03-24T08:34:04.698Z,0.88
2023-03-24T08:36:31.999Z,0.77
2023-03-24T08:39:01.952Z,1.10
2023-03-24T08:41:34.981Z,0.75
2023-03-24T08:44:07.036Z,0.82
2023-03-24T08:49:03.791Z,1.23
2023-03-24T08:51:31.816Z,1.02
2023-03-24T08:53:58.839Z,1.02
2023-03-24T08:56:26.252Z,0.70
2023-03-24T08:58:53.967Z,0.98
2023-03-24T09:01:21.266Z,1.42
2023-03-24T09:03:48.001Z,1.95
2023-03-24T09:06:15.641Z,0.75
2023-03-24T09:08:42.592Z,1.40
2023-03-24T09:11:14.762Z,1.40
2023-03-24T09:13:41.598Z,1.10
2023-03-24T09:16:08.667Z,0.63
2023-03-24T09:18:35.909Z,0.90
2023-03-24T09:21:03.179Z,1.17
2023-03-24T09:23:31.852Z,1.02
2023-03-24T09:25:59.124Z,1.00
2023-03-24T09:28:26.170Z,1.05
2023-03-24T09:30:56.725Z,0.93
2023-03-24T09:33:24.472Z,0.80
2023-03-24T09:35:55.696Z,1.35
2023-03-24T09:38:24.124Z,0.90
2023-03-24T09:40:54.367Z,1.25
2023-03-24T09:43:33.360Z,0.82
2023-03-24T09:46:02.565Z,0.77
2023-03-24T09:48:50.098Z,0.98
2023-03-24T09:51:20.226Z,1.05
2023-03-24T09:53:49.974Z,1.35
2023-03-24T09:56:18.819Z,0.70
2023-03-24T09:58:46.505Z,1.17
2023-03-24T10:01:15.370Z,0.90
2023-03-24T10:03:45.641Z,0.60
2023-03-24T10:06:26.358Z,1.00
2023-03-24T10:09:13.911Z,2.13
2023-03-24T10:11:53.281Z,0.80
2023-03-24T10:14:33.696Z,0.93
2023-03-24T10:17:08.947Z,0.80
2023-03-24T10:19:36.754Z,0.75
2023-03-24T10:22:10.182Z,0.75
2023-03-24T10:24:44.810Z,1.10
2023-03-24T10:27:19.963Z,1.05
2023-03-24T10:29:48.530Z,0.88
2023-03-24T10:32:24.228Z,0.68
2023-03-24T10:35:00.600Z,0.70
2023-03-24T10:37:31.736Z,0.75
2023-03-24T10:39:58.645Z,0.70
2023-03-24T10:42:26.673Z,0.75
2023-03-24T10:44:53.836Z,0.80
2023-03-24T10:47:24.792Z,0.80
2023-03-24T10:49:57.341Z,2.00
2023-03-24T10:52:25.421Z,0.50
2023-03-24T10:54:57.902Z,0.70
2023-03-24T10:57:25.264Z,0.70
2023-03-24T10:59:52.022Z,0.68
2023-03-24T11:02:26.408Z,0.80
2023-03-24T11:05:02.802Z,1.23
2023-03-24T11:07:32.303Z,0.70
2023-03-24T11:10:11.325Z,0.73
2023-03-24T11:12:39.519Z,1.00
2023-03-24T11:15:18.021Z,0.68
2023-03-24T11:18:09.066Z,0.88
2023-03-24T11:20:37.620Z,1.02
2023-03-24T11:23:23.246Z,0.50
2023-03-24T11:26:08.265Z,1.10
2023-03-24T11:28:42.171Z,2.58
2023-03-24T11:31:10.931Z,1.65
2023-03-24T11:33:51.354Z,1.02
2023-03-24T11:36:30.906Z,1.30
2023-03-24T11:39:02.205Z,0.90
2023-03-24T11:41:28.953Z,0.95
2023-03-24T11:44:13.921Z,0.95
2023-03-24T11:46:42.774Z,1.20
2023-03-24T11:49:10.645Z,0.90
2023-03-24T11:51:39.080Z,0.73
2023-03-24T11:54:10.111Z,0.68
2023-03-24T11:56:44.871Z,0.80
2023-03-24T11:59:31.622Z,0.73
2023-03-24T12:02:22.296Z,1.02
2023-03-24T12:04:50.072Z,0.68
2023-03-24T12:07:37.337Z,0.70
2023-03-24T12:10:26.594Z,0.60
2023-03-24T12:12:59.035Z,0.82
2023-03-24T12:15:33.894Z,0.60
2023-03-24T12:18:16.093Z,0.55
2023-03-24T12:20:51.663Z,0.70
2023-03-24T12:23:33.947Z,1.20
2023-03-24T12:26:14.469Z,0.68
2023-03-24T12:28:50.457Z,0.55
2023-03-24T12:31:36.279Z,0.60
2023-03-24T12:34:22.081Z,1.23
2023-03-24T12:37:07.806Z,1.35
2023-03-24T12:39:37.627Z,0.77
2023-03-24T12:42:12.853Z,1.92
2023-03-24T12:44:39.813Z,1.05
2023-03-24T12:47:06.453Z,0.80
2023-03-24T12:49:44.780Z,0.80
2023-03-24T12:52:34.433Z,1.00
2023-03-24T12:55:05.144Z,0.70
2023-03-24T12:57:38.008Z,0.60
2023-03-24T13:00:11.470Z,0.70
2023-03-24T13:02:50.180Z,0.60
2023-03-24T13:05:23.386Z,0.77
2023-03-24T13:07:54.637Z,0.70
2023-03-24T13:10:21.487Z,0.70
2023-03-24T13:13:00.991Z,0.60
2023-03-24T13:15:33.823Z,0.57
2023-03-24T13:18:26.464Z,0.57
2023-03-24T13:20:55.910Z,0.50
2023-03-24T13:23:25.376Z,0.60
2023-03-24T13:26:11.090Z,0.57
2023-03-24T13:28:44.186Z,0.50
2023-03-24T13:31:14.610Z,0.57
2023-03-24T13:33:45.211Z,0.63
2023-03-24T13:36:19.976Z,1.40
2023-03-24T13:38:49.902Z,0.63
2023-03-24T13:41:20.946Z,0.40
2023-03-24T13:43:49.931Z,0.50
2023-03-24T13:46:16.812Z,0.47
2023-03-24T13:48:55.301Z,0.68
2023-03-24T13:51:22.069Z,0.93
2023-03-24T13:53:54.123Z,0.60
2023-03-24T13:56:37.595Z,0.63
2023-03-24T13:59:07.333Z,0.80
2023-03-24T14:01:42.365Z,0.60
2023-03-24T14:04:28.098Z,1.10
2023-03-24T14:06:57.110Z,0.60
2023-03-24T14:09:25.060Z,0.70
2023-03-24T14:12:04.803Z,0.60
2023-03-24T14:14:39.411Z,0.60
2023-03-24T14:17:06.134Z,0.50
2023-03-24T14:19:33.260Z,0.60
2023-03-24T14:22:12.081Z,0.68
2023-03-24T14:24:40.896Z,0.55
2023-03-24T14:27:30.917Z,0.60
2023-03-24T14:30:00.653Z,0.45
2023-03-24T14:32:27.537Z,0.60
2023-03-24T14:35:00.605Z,0.43
2023-03-24T14:37:28.550Z,0.60
2023-03-24T14:39:59.712Z,0.63
2023-03-24T14:42:29.717Z,0.60
2023-03-24T14:44:57.902Z,0.50
2023-03-24T14:47:32.452Z,0.70
2023-03-24T14:50:01.278Z,0.60
2023-03-24T14:52:48.179Z,0.40
2023-03-24T14:55:19.934Z,0.75
2023-03-24T14:57:49.175Z,0.50
2023-03-24T15:00:21.998Z,0.60
2023-03-24T15:02:51.070Z,1.15
2023-03-24T15:05:23.018Z,1.05
2023-03-24T15:08:05.017Z,0.88
2023-03-24T15:10:44.140Z,1.00
2023-03-24T15:13:44.225Z,0.68
2023-03-24T15:16:10.910Z,1.15
2023-03-24T15:19:00.040Z,1.40
2023-03-24T15:21:43.499Z,1.50
2023-03-24T15:24:22.488Z,1.30
2023-03-24T15:26:49.889Z,1.42
2023-03-24T15:29:16.885Z,2.10
2023-03-24T15:31:43.643Z,1.55
2023-03-24T15:34:31.523Z,1.40
2023-03-24T15:36:59.387Z,2.28
2023-03-24T15:39:27.673Z,2.45
2023-03-24T15:41:54.734Z,1.98
2023-03-24T15:44:25.728Z,1.52
2023-03-24T15:46:57.023Z,1.98
2023-03-24T15:49:28.118Z,2.00
2023-03-24T15:52:14.943Z,2.58
2023-03-24T15:54:42.182Z,1.98
2023-03-24T15:57:14.457Z,1.85
2023-03-24T15:59:46.173Z,1.98
2023-03-24T16:02:33.527Z,1.92
2023-03-24T16:05:10.715Z,2.08
2023-03-24T16:07:40.942Z,1.88
2023-03-24T16:10:25.660Z,2.30
2023-03-24T16:12:52.703Z,1.95
2023-03-24T16:15:22.008Z,2.22
2023-03-24T16:17:50.486Z,2.53
2023-03-24T16:20:19.398Z,1.80
2023-03-24T16:22:47.307Z,1.60
2023-03-24T16:25:14.625Z,3.05
2023-03-24T16:27:43.919Z,1.80
2023-03-24T16:30:27.087Z,2.42
2023-03-24T16:32:54.724Z,1.55
2023-03-24T16:35:21.770Z,2.47
2023-03-24T16:37:48.554Z,2.28
2023-03-24T16:40:22.954Z,1.63
2023-03-24T16:42:55.428Z,1.70
2023-03-24T16:45:22.233Z,1.80
2023-03-24T16:47:48.825Z,2.10
2023-03-24T16:50:27.784Z,1.60
2023-03-24T16:52:55.472Z,2.10
2023-03-24T16:55:22.208Z,1.83
2023-03-24T16:57:49.054Z,2.08
2023-03-24T17:00:15.910Z,2.38
2023-03-24T17:02:48.563Z,1.60
2023-03-24T17:05:18.772Z,1.50
2023-03-24T17:07:45.611Z,1.55
2023-03-24T17:10:18.499Z,1.50
2023-03-24T17:12:46.012Z,1.98
2023-03-24T17:15:20.958Z,1.95
2023-03-24T17:17:47.942Z,1.90
2023-03-24T17:20:15.488Z,2.42
2023-03-24T17:22:43.443Z,2.10
2023-03-24T17:25:12.035Z,2.17
2023-03-24T17:27:38.974Z,1.60
2023-03-24T17:30:07.158Z,1.98
2023-03-24T17:32:37.829Z,1.42
2023-03-24T17:35:04.952Z,1.80
2023-03-24T17:37:31.682Z,2.33
2023-03-24T17:39:58.757Z,1.88
2023-03-24T17:42:27.041Z,1.60
2023-03-24T17:44:53.991Z,2.60
2023-03-24T17:47:21.038Z,1.77
2023-03-24T17:49:47.580Z,2.13
2023-03-24T17:52:14.435Z,1.45
2023-03-24T17:54:41.281Z,1.60
2023-03-24T17:57:08.262Z,2.10
2023-03-24T17:59:35.294Z,1.90
2023-03-24T18:02:05.673Z,1.35
2023-03-24T18:04:33.436Z,1.60
2023-03-24T18:07:00.535Z,1.70
2023-03-24T18:09:27.799Z,1.40
2023-03-24T18:11:54.854Z,1.30
2023-03-24T18:14:22.201Z,1.30
2023-03-24T18:16:49.036Z,1.50
2023-03-24T18:19:16.420Z,1.60
2023-03-24T18:21:44.807Z,1.42
2023-03-24T18:24:14.831Z,1.48
2023-03-24T18:26:41.850Z,1.30
2023-03-24T18:29:09.151Z,1.08
2023-03-24T18:31:36.204Z,1.10
2023-03-24T18:34:04.233Z,1.23
2023-03-24T18:36:31.641Z,0.95
2023-03-24T18:38:59.713Z,1.00
2023-03-24T18:41:30.245Z,1.08
2023-03-24T18:43:58.426Z,1.42
2023-03-24T18:46:26.402Z,0.98
2023-03-24T18:48:53.661Z,1.13
2023-03-24T18:51:21.216Z,1.00
2023-03-24T18:53:51.455Z,1.38
2023-03-24T18:56:19.322Z,0.93
2023-03-24T18:58:46.784Z,1.13
2023-03-24T19:01:15.335Z,0.90
2023-03-24T19:03:44.276Z,1.13
2023-03-24T19:06:12.910Z,1.00
2023-03-24T19:08:44.850Z,1.20
2023-03-24T19:11:13.084Z,1.13
2023-03-24T19:13:41.284Z,1.40
2023-03-24T19:16:09.477Z,1.08
2023-03-24T19:18:37.141Z,0.70
2023-03-24T19:21:04.081Z,1.00
2023-03-24T19:23:31.767Z,1.27
2023-03-24T19:25:59.121Z,1.30
2023-03-24T19:28:27.616Z,1.05
2023-03-24T19:30:54.476Z,1.00
2023-03-24T19:33:21.508Z,0.65
2023-03-24T19:35:49.147Z,0.80
2023-03-24T19:38:17.684Z,1.10
2023-03-24T19:40:45.125Z,1.02
2023-03-24T19:43:11.750Z,0.95
2023-03-24T19:45:42.859Z,0.85
2023-03-24T19:48:13.300Z,0.97
2023-03-24T19:50:39.804Z,0.77
2023-03-24T19:53:06.590Z,0.90
2023-03-24T19:55:33.659Z,0.77
2023-03-24T19:58:00.530Z,1.05
2023-03-24T20:00:27.399Z,1.20
2023-03-24T20:02:54.397Z,0.75
2023-03-24T20:05:21.675Z,1.38
2023-03-24T20:07:50.464Z,1.05
2023-03-24T20:10:21.514Z,1.40
2023-03-24T20:12:48.599Z,1.00
2023-03-24T20:15:15.810Z,1.50
2023-03-24T20:17:45.953Z,1.15
2023-03-24T20:20:13.349Z,1.08
2023-03-24T20:22:46.032Z,1.20
2023-03-24T20:25:19.496Z,1.10
2023-03-24T20:27:47.945Z,1.20
2023-03-24T20:30:16.766Z,1.55
2023-03-24T20:32:44.289Z,1.77
2023-03-24T20:35:12.350Z,1.60
2023-03-24T20:37:39.108Z,1.67
2023-03-24T20:40:06.871Z,2.20
2023-03-24T20:42:33.666Z,2.03
2023-03-24T20:45:00.630Z,2.55
2023-03-24T20:47:27.436Z,2.28
2023-03-24T20:49:54.204Z,2.13
2023-03-24T20:52:23.105Z,2.35
2023-03-24T20:54:50.902Z,2.72
2023-03-24T20:57:17.973Z,2.60
2023-03-24T20:59:44.795Z,2.63
2023-03-24T21:02:12.480Z,2.13
2023-03-24T21:04:39.905Z,2.97
2023-03-24T21:07:06.578Z,2.42
2023-03-24T21:09:33.403Z,2.90
2023-03-24T21:12:01.767Z,2.35
2023-03-24T21:14:30.442Z,2.22
2023-03-24T21:16:57.436Z,3.08
2023-03-24T21:19:29.757Z,2.78
2023-03-24T21:21:56.763Z,2.90
2023-03-24T21:24:24.369Z,2.67
2023-03-24T21:26:51.438Z,3.78
2023-03-24T21:29:18.289Z,2.97
2023-03-24T21:31:45.702Z,2.50
2023-03-24T21:34:12.348Z,3.40
2023-03-24T21:36:39.140Z,2.50
2023-03-24T21:39:07.519Z,2.72
2023-03-24T21:41:37.436Z,3.15
2023-03-24T21:44:04.043Z,3.30
2023-03-24T21:46:32.250Z,2.40
2023-03-24T21:48:59.606Z,2.80
2023-03-24T21:51:30.787Z,2.60
2023-03-24T21:54:03.544Z,2.95
2023-03-24T21:56:31.687Z,2.30
2023-03-24T21:58:58.844Z,2.10
2023-03-24T22:01:26.254Z,2.50
2023-03-24T22:03:59.069Z,2.40
2023-03-24T22:06:29.369Z,2.70
2023-03-24T22:08:58.801Z,2.20
2023-03-24T22:11:26.330Z,2.20
2023-03-24T22:13:53.540Z,2.33
2023-03-24T22:16:20.867Z,2.22
2023-03-24T22:18:51.758Z,2.35
2023-03-24T22:21:18.558Z,2.20
2023-03-24T22:23:45.199Z,2.25
2023-03-24T22:26:13.423Z,2.10
2023-03-24T22:28:40.895Z,2.13
2023-03-24T22:31:12.028Z,1.77
2023-03-24T22:33:38.825Z,2.10
2023-03-24T22:36:06.512Z,1.75
2023-03-24T22:38:34.608Z,1.80
2023-03-24T22:41:06.176Z,1.77
2023-03-24T22:43:33.424Z,2.33
2023-03-24T22:46:00.251Z,2.35
2023-03-24T22:48:29.958Z,1.90
2023-03-24T22:50:56.731Z,2.25
2023-03-24T22:53:23.511Z,2.05
2023-03-24T22:55:50.965Z,1.60
2023-03-24T22:58:18.214Z,1.63
2023-03-24T23:00:45.273Z,2.00
2023-03-24T23:03:12.442Z,1.67
2023-03-24T23:05:43.718Z,1.95
2023-03-24T23:08:10.633Z,1.70
2023-03-24T23:10:39.145Z,1.75
2023-03-24T23:13:05.885Z,1.90
2023-03-24T23:15:32.866Z,1.92
2023-03-24T23:18:00.219Z,1.77
2023-03-24T23:20:28.280Z,1.50
2023-03-24T23:22:56.119Z,1.85
2023-03-24T23:25:23.044Z,2.15
2023-03-24T23:27:50.540Z,1.77
2023-03-24T23:30:17.447Z,1.80
2023-03-24T23:32:47.078Z,1.70
2023-03-24T23:35:14.532Z,1.88
2023-03-24T23:37:41.395Z,2.05
2023-03-24T23:40:13.350Z,2.42
2023-03-24T23:42:40.858Z,1.63
2023-03-24T23:45:07.968Z,1.85
2023-03-24T23:47:36.744Z,2.35
2023-03-24T23:50:07.289Z,2.30
2023-03-24T23:52:34.613Z,2.17
2023-03-24T23:55:02.574Z,2.42
2023-03-24T23:57:29.419Z,2.25
2023-03-24T23:59:56.172Z,3.40
